sensor_id;sensor_type;location;lat;lon;timestamp;pressure;altitude;pressure_sealevel;temperature;humidity
16806;BME280;8520;50.102;20.010;2023-03-14T00:00:28;96814.78;;;13.57;48.96
16806;BME280;8520;50.102;20.010;2023-03-14T00:02:56;96810.13;;;13.86;48.02
16806;BME280;8520;50.102;20.010;2023-03-14T00:05:25;96816.41;;;13.86;48.36
16806;BME280;8520;50.102;20.010;2023-03-14T00:07:53;96803.00;;;13.77;47.81
16806;BME280;8520;50.102;20.010;2023-03-14T00:10:21;96815.38;;;13.76;48.08
16806;BME280;8520;50.102;20.010;2023-03-14T00:12:49;96812.53;;;14.02;47.75
16806;BME280;8520;50.102;20.010;2023-03-14T00:15:17;96805.38;;;14.49;46.77
16806;BME280;8520;50.102;20.010;2023-03-14T00:17:46;96800.41;;;13.92;47.60
16806;BME280;8520;50.102;20.010;2023-03-14T00:20:14;96797.72;;;14.21;47.15
16806;BME280;8520;50.102;20.010;2023-03-14T00:22:43;96799.53;;;14.60;46.85
16806;BME280;8520;50.102;20.010;2023-03-14T00:25:12;96791.50;;;14.49;46.99
16806;BME280;8520;50.102;20.010;2023-03-14T00:27:40;96799.41;;;14.45;46.66
16806;BME280;8520;50.102;20.010;2023-03-14T00:30:09;96802.53;;;14.41;47.09
16806;BME280;8520;50.102;20.010;2023-03-14T00:32:38;96798.53;;;14.71;46.62
16806;BME280;8520;50.102;20.010;2023-03-14T00:35:10;96794.41;;;14.43;46.79
16806;BME280;8520;50.102;20.010;2023-03-14T00:37:38;96789.97;;;14.61;46.83
16806;BME280;8520;50.102;20.010;2023-03-14T00:40:07;96785.59;;;14.52;47.19
16806;BME280;8520;50.102;20.010;2023-03-14T00:42:36;96785.16;;;14.61;47.27
16806;BME280;8520;50.102;20.010;2023-03-14T00:45:05;96768.06;;;14.78;46.48
16806;BME280;8520;50.102;20.010;2023-03-14T00:47:34;96766.22;;;14.60;47.00
16806;BME280;8520;50.102;20.010;2023-03-14T00:50:02;96762.38;;;14.63;46.81
16806;BME280;8520;50.102;20.010;2023-03-14T00:52:32;96758.94;;;14.99;45.79
16806;BME280;8520;50.102;20.010;2023-03-14T00:55:00;96745.16;;;14.85;46.44
16806;BME280;8520;50.102;20.010;2023-03-14T00:57:28;96738.16;;;14.92;45.93
16806;BME280;8520;50.102;20.010;2023-03-14T00:59:56;96736.50;;;14.97;46.41
16806;BME280;8520;50.102;20.010;2023-03-14T01:02:25;96741.78;;;14.58;47.19
16806;BME280;8520;50.102;20.010;2023-03-14T01:04:55;96713.19;;;15.00;46.52
16806;BME280;8520;50.102;20.010;2023-03-14T01:07:23;96720.25;;;15.01;46.49
16806;BME280;8520;50.102;20.010;2023-03-14T01:09:53;96708.47;;;14.58;46.69
16806;BME280;8520;50.102;20.010;2023-03-14T01:12:21;96694.06;;;14.60;46.70
16806;BME280;8520;50.102;20.010;2023-03-14T01:14:49;96676.13;;;14.61;46.77
16806;BME280;8520;50.102;20.010;2023-03-14T01:17:17;96671.28;;;14.33;47.23
16806;BME280;8520;50.102;20.010;2023-03-14T01:19:46;96657.84;;;14.16;47.33
16806;BME280;8520;50.102;20.010;2023-03-14T01:22:15;96648.00;;;14.36;47.41
16806;BME280;8520;50.102;20.010;2023-03-14T01:24:43;96647.34;;;13.94;47.91
16806;BME280;8520;50.102;20.010;2023-03-14T01:27:12;96650.63;;;14.13;47.57
16806;BME280;8520;50.102;20.010;2023-03-14T01:29:40;96651.88;;;14.33;47.38
16806;BME280;8520;50.102;20.010;2023-03-14T01:32:09;96641.75;;;14.64;46.94
16806;BME280;8520;50.102;20.010;2023-03-14T01:34:37;96644.16;;;14.39;47.34
16806;BME280;8520;50.102;20.010;2023-03-14T01:37:05;96631.09;;;14.26;47.61
16806;BME280;8520;50.102;20.010;2023-03-14T01:39:36;96631.00;;;13.90;48.32
16806;BME280;8520;50.102;20.010;2023-03-14T01:42:04;96613.03;;;13.63;48.64
16806;BME280;8520;50.102;20.010;2023-03-14T01:44:50;96624.53;;;13.67;48.84
16806;BME280;8520;50.102;20.010;2023-03-14T01:47:19;96632.59;;;13.44;49.15
16806;BME280;8520;50.102;20.010;2023-03-14T01:49:50;96637.66;;;13.32;49.39
16806;BME280;8520;50.102;20.010;2023-03-14T01:52:22;96624.84;;;13.42;49.40
16806;BME280;8520;50.102;20.010;2023-03-14T01:54:54;96621.34;;;13.63;49.10
16806;BME280;8520;50.102;20.010;2023-03-14T01:57:27;96615.69;;;13.47;49.23
16806;BME280;8520;50.102;20.010;2023-03-14T02:00:01;96619.75;;;13.67;48.73
16806;BME280;8520;50.102;20.010;2023-03-14T02:02:39;96606.03;;;13.83;48.77
16806;BME280;8520;50.102;20.010;2023-03-14T02:05:10;96593.00;;;13.98;48.70
16806;BME280;8520;50.102;20.010;2023-03-14T02:07:46;96583.78;;;13.54;49.63
16806;BME280;8520;50.102;20.010;2023-03-14T02:10:23;96579.09;;;13.70;49.53
16806;BME280;8520;50.102;20.010;2023-03-14T02:12:55;96572.00;;;13.61;49.66
16806;BME280;8520;50.102;20.010;2023-03-14T02:15:37;96577.25;;;13.31;50.24
16806;BME280;8520;50.102;20.010;2023-03-14T02:18:12;96571.41;;;13.55;50.03
16806;BME280;8520;50.102;20.010;2023-03-14T02:21:03;96566.06;;;14.06;49.16
16806;BME280;8520;50.102;20.010;2023-03-14T02:23:38;96556.75;;;13.96;49.40
16806;BME280;8520;50.102;20.010;2023-03-14T02:26:15;96551.13;;;14.10;48.92
16806;BME280;8520;50.102;20.010;2023-03-14T02:28:49;96546.25;;;13.74;49.56
16806;BME280;8520;50.102;20.010;2023-03-14T02:31:21;96531.78;;;13.68;50.11
16806;BME280;8520;50.102;20.010;2023-03-14T02:33:50;96529.16;;;13.41;50.55
16806;BME280;8520;50.102;20.010;2023-03-14T02:36:19;96527.13;;;13.21;50.61
16806;BME280;8520;50.102;20.010;2023-03-14T02:38:53;96516.03;;;13.21;51.29
16806;BME280;8520;50.102;20.010;2023-03-14T02:41:25;96513.00;;;13.11;51.44
16806;BME280;8520;50.102;20.010;2023-03-14T02:44:02;96519.47;;;12.93;51.51
16806;BME280;8520;50.102;20.010;2023-03-14T02:46:30;96501.63;;;12.81;51.68
16806;BME280;8520;50.102;20.010;2023-03-14T02:49:02;96503.22;;;13.10;51.64
16806;BME280;8520;50.102;20.010;2023-03-14T02:51:32;96507.25;;;13.30;51.31
16806;BME280;8520;50.102;20.010;2023-03-14T02:54:01;96499.59;;;13.44;51.04
16806;BME280;8520;50.102;20.010;2023-03-14T02:56:29;96503.41;;;13.33;51.32
16806;BME280;8520;50.102;20.010;2023-03-14T02:58:58;96503.56;;;13.48;50.76
16806;BME280;8520;50.102;20.010;2023-03-14T03:01:43;96504.84;;;13.47;50.71
16806;BME280;8520;50.102;20.010;2023-03-14T03:04:11;96506.22;;;13.41;50.94
16806;BME280;8520;50.102;20.010;2023-03-14T03:06:40;96493.34;;;13.22;51.21
16806;BME280;8520;50.102;20.010;2023-03-14T03:09:09;96479.56;;;13.30;51.00
16806;BME280;8520;50.102;20.010;2023-03-14T03:11:37;96480.34;;;12.76;52.06
16806;BME280;8520;50.102;20.010;2023-03-14T03:14:06;96482.31;;;12.88;52.18
16806;BME280;8520;50.102;20.010;2023-03-14T03:16:34;96475.28;;;12.87;52.22
16806;BME280;8520;50.102;20.010;2023-03-14T03:19:04;96484.56;;;13.11;51.67
16806;BME280;8520;50.102;20.010;2023-03-14T03:21:32;96475.56;;;12.97;52.27
16806;BME280;8520;50.102;20.010;2023-03-14T03:24:01;96479.97;;;13.13;52.10
16806;BME280;8520;50.102;20.010;2023-03-14T03:26:33;96467.75;;;13.09;52.08
16806;BME280;8520;50.102;20.010;2023-03-14T03:29:03;96473.09;;;13.28;51.33
16806;BME280;8520;50.102;20.010;2023-03-14T03:31:31;96465.25;;;13.18;51.93
16806;BME280;8520;50.102;20.010;2023-03-14T03:33:59;96471.78;;;13.08;52.02
16806;BME280;8520;50.102;20.010;2023-03-14T03:36:29;96471.53;;;13.19;51.63
16806;BME280;8520;50.102;20.010;2023-03-14T03:38:59;96475.09;;;13.27;51.29
16806;BME280;8520;50.102;20.010;2023-03-14T03:41:27;96476.78;;;13.30;51.46
16806;BME280;8520;50.102;20.010;2023-03-14T03:43:55;96474.97;;;13.12;51.66
16806;BME280;8520;50.102;20.010;2023-03-14T03:46:25;96469.91;;;13.03;51.79
16806;BME280;8520;50.102;20.010;2023-03-14T03:48:58;96467.06;;;13.16;51.55
16806;BME280;8520;50.102;20.010;2023-03-14T03:51:29;96455.03;;;13.13;51.50
16806;BME280;8520;50.102;20.010;2023-03-14T03:53:57;96458.75;;;12.95;52.18
16806;BME280;8520;50.102;20.010;2023-03-14T03:56:29;96457.66;;;12.98;52.26
16806;BME280;8520;50.102;20.010;2023-03-14T03:58:59;96458.41;;;12.78;52.80
16806;BME280;8520;50.102;20.010;2023-03-14T04:01:27;96455.44;;;12.55;53.42
16806;BME280;8520;50.102;20.010;2023-03-14T04:03:57;96475.81;;;12.65;53.12
16806;BME280;8520;50.102;20.010;2023-03-14T04:06:26;96469.03;;;12.53;53.32
16806;BME280;8520;50.102;20.010;2023-03-14T04:08:58;96473.06;;;12.52;53.70
16806;BME280;8520;50.102;20.010;2023-03-14T04:11:34;96462.53;;;12.63;52.99
16806;BME280;8520;50.102;20.010;2023-03-14T04:14:23;96461.13;;;12.23;53.95
16806;BME280;8520;50.102;20.010;2023-03-14T04:17:02;96468.25;;;12.31;53.84
16806;BME280;8520;50.102;20.010;2023-03-14T04:19:31;96466.06;;;12.51;53.69
16806;BME280;8520;50.102;20.010;2023-03-14T04:21:59;96481.72;;;12.48;53.53
16806;BME280;8520;50.102;20.010;2023-03-14T04:24:34;96467.44;;;12.57;53.34
16806;BME280;8520;50.102;20.010;2023-03-14T04:27:02;96478.41;;;12.50;53.45
16806;BME280;8520;50.102;20.010;2023-03-14T04:29:33;96477.78;;;12.78;52.89
16806;BME280;8520;50.102;20.010;2023-03-14T04:32:01;96476.19;;;12.82;52.66
16806;BME280;8520;50.102;20.010;2023-03-14T04:34:29;96470.84;;;12.84;52.32
16806;BME280;8520;50.102;20.010;2023-03-14T04:36:58;96484.72;;;12.71;52.60
16806;BME280;8520;50.102;20.010;2023-03-14T04:39:34;96492.34;;;12.91;52.38
16806;BME280;8520;50.102;20.010;2023-03-14T04:42:31;96501.50;;;13.07;52.35
16806;BME280;8520;50.102;20.010;2023-03-14T04:44:59;96498.41;;;13.11;52.28
16806;BME280;8520;50.102;20.010;2023-03-14T04:47:30;96496.59;;;13.13;51.71
16806;BME280;8520;50.102;20.010;2023-03-14T04:49:59;96506.25;;;13.20;51.85
16806;BME280;8520;50.102;20.010;2023-03-14T04:52:28;96504.78;;;13.19;51.53
16806;BME280;8520;50.102;20.010;2023-03-14T04:54:58;96522.72;;;12.23;53.75
16806;BME280;8520;50.102;20.010;2023-03-14T04:57:27;96524.81;;;11.64;55.55
16806;BME280;8520;50.102;20.010;2023-03-14T04:59:55;96519.09;;;12.02;54.78
16806;BME280;8520;50.102;20.010;2023-03-14T05:02:42;96533.94;;;11.59;55.93
16806;BME280;8520;50.102;20.010;2023-03-14T05:05:23;96529.16;;;11.60;56.88
16806;BME280;8520;50.102;20.010;2023-03-14T05:08:04;96519.53;;;11.34;56.74
16806;BME280;8520;50.102;20.010;2023-03-14T05:10:53;96519.94;;;11.97;54.95
16806;BME280;8520;50.102;20.010;2023-03-14T05:13:34;96515.78;;;12.03;54.86
16806;BME280;8520;50.102;20.010;2023-03-14T05:16:15;96511.00;;;12.04;54.21
16806;BME280;8520;50.102;20.010;2023-03-14T05:18:55;96506.56;;;12.61;53.63
16806;BME280;8520;50.102;20.010;2023-03-14T05:21:43;96511.94;;;12.46;54.19
16806;BME280;8520;50.102;20.010;2023-03-14T05:24:51;96507.56;;;12.51;54.23
16806;BME280;8520;50.102;20.010;2023-03-14T05:27:42;96505.53;;;12.64;53.91
16806;BME280;8520;50.102;20.010;2023-03-14T05:30:30;96498.69;;;12.65;53.64
16806;BME280;8520;50.102;20.010;2023-03-14T05:33:19;96487.28;;;12.69;53.54
16806;BME280;8520;50.102;20.010;2023-03-14T05:36:06;96482.94;;;12.60;53.85
16806;BME280;8520;50.102;20.010;2023-03-14T05:39:00;96467.84;;;12.61;54.24
16806;BME280;8520;50.102;20.010;2023-03-14T05:41:47;96464.22;;;12.66;53.69
16806;BME280;8520;50.102;20.010;2023-03-14T05:44:24;96466.97;;;12.66;53.61
16806;BME280;8520;50.102;20.010;2023-03-14T05:46:55;96464.88;;;12.80;53.75
16806;BME280;8520;50.102;20.010;2023-03-14T05:49:24;96468.19;;;12.79;53.75
16806;BME280;8520;50.102;20.010;2023-03-14T05:52:12;96467.34;;;12.84;54.09
16806;BME280;8520;50.102;20.010;2023-03-14T05:54:59;96452.75;;;12.83;54.01
16806;BME280;8520;50.102;20.010;2023-03-14T05:57:42;96471.97;;;12.68;54.59
16806;BME280;8520;50.102;20.010;2023-03-14T06:00:39;96467.34;;;12.84;53.92
16806;BME280;8520;50.102;20.010;2023-03-14T06:03:27;96457.09;;;12.92;54.00
16806;BME280;8520;50.102;20.010;2023-03-14T06:05:56;96463.75;;;12.97;54.01
16806;BME280;8520;50.102;20.010;2023-03-14T06:08:25;96458.22;;;12.97;54.01
16806;BME280;8520;50.102;20.010;2023-03-14T06:10:53;96456.66;;;12.88;54.48
16806;BME280;8520;50.102;20.010;2023-03-14T06:13:27;96462.28;;;12.95;54.04
16806;BME280;8520;50.102;20.010;2023-03-14T06:15:56;96454.66;;;13.09;53.82
16806;BME280;8520;50.102;20.010;2023-03-14T06:18:24;96443.09;;;13.18;52.95
16806;BME280;8520;50.102;20.010;2023-03-14T06:20:54;96446.66;;;13.27;52.62
16806;BME280;8520;50.102;20.010;2023-03-14T06:23:25;96448.47;;;13.24;52.15
16806;BME280;8520;50.102;20.010;2023-03-14T06:25:56;96448.78;;;13.41;52.18
16806;BME280;8520;50.102;20.010;2023-03-14T06:28:25;96464.97;;;13.30;53.13
16806;BME280;8520;50.102;20.010;2023-03-14T06:31:00;96460.50;;;12.64;55.47
16806;BME280;8520;50.102;20.010;2023-03-14T06:33:34;96458.63;;;11.72;58.55
16806;BME280;8520;50.102;20.010;2023-03-14T06:36:03;96453.81;;;11.86;57.29
16806;BME280;8520;50.102;20.010;2023-03-14T06:38:32;96441.63;;;12.42;55.57
16806;BME280;8520;50.102;20.010;2023-03-14T06:41:03;96432.72;;;12.90;54.71
16806;BME280;8520;50.102;20.010;2023-03-14T06:43:38;96439.22;;;13.21;54.56
16806;BME280;8520;50.102;20.010;2023-03-14T06:46:09;96440.47;;;13.41;53.83
16806;BME280;8520;50.102;20.010;2023-03-14T06:48:39;96432.88;;;13.63;53.45
16806;BME280;8520;50.102;20.010;2023-03-14T06:51:08;96429.41;;;13.41;54.41
16806;BME280;8520;50.102;20.010;2023-03-14T06:53:36;96423.09;;;13.62;54.01
16806;BME280;8520;50.102;20.010;2023-03-14T06:56:06;96419.66;;;13.76;53.99
16806;BME280;8520;50.102;20.010;2023-03-14T06:58:34;96433.91;;;13.80;53.64
16806;BME280;8520;50.102;20.010;2023-03-14T07:01:05;96422.22;;;14.11;52.89
16806;BME280;8520;50.102;20.010;2023-03-14T07:03:41;96416.97;;;14.43;52.52
16806;BME280;8520;50.102;20.010;2023-03-14T07:06:09;96411.44;;;13.99;53.62
16806;BME280;8520;50.102;20.010;2023-03-14T07:08:37;96416.81;;;14.56;51.89
16806;BME280;8520;50.102;20.010;2023-03-14T07:11:06;96414.47;;;14.68;51.70
16806;BME280;8520;50.102;20.010;2023-03-14T07:13:34;96420.19;;;14.70;51.15
16806;BME280;8520;50.102;20.010;2023-03-14T07:16:06;96409.50;;;15.20;50.96
16806;BME280;8520;50.102;20.010;2023-03-14T07:18:36;96400.75;;;15.46;50.34
16806;BME280;8520;50.102;20.010;2023-03-14T07:21:07;96397.19;;;15.61;49.89
16806;BME280;8520;50.102;20.010;2023-03-14T07:23:37;96395.72;;;15.75;49.41
16806;BME280;8520;50.102;20.010;2023-03-14T07:26:06;96399.97;;;15.76;49.31
16806;BME280;8520;50.102;20.010;2023-03-14T07:28:37;96402.25;;;15.32;50.29
16806;BME280;8520;50.102;20.010;2023-03-14T07:31:11;96408.72;;;15.35;49.99
16806;BME280;8520;50.102;20.010;2023-03-14T07:33:40;96407.31;;;15.97;48.78
16806;BME280;8520;50.102;20.010;2023-03-14T07:36:10;96394.06;;;16.20;48.57
16806;BME280;8520;50.102;20.010;2023-03-14T07:38:42;96388.16;;;16.09;49.01
16806;BME280;8520;50.102;20.010;2023-03-14T07:41:30;96382.13;;;16.27;48.93
16806;BME280;8520;50.102;20.010;2023-03-14T07:44:33;96380.41;;;16.72;48.08
16806;BME280;8520;50.102;20.010;2023-03-14T07:47:01;96372.97;;;16.75;47.46
16806;BME280;8520;50.102;20.010;2023-03-14T07:49:30;96378.31;;;16.80;47.34
16806;BME280;8520;50.102;20.010;2023-03-14T07:51:59;96385.09;;;16.95;47.25
16806;BME280;8520;50.102;20.010;2023-03-14T07:54:28;96390.41;;;16.43;47.60
16806;BME280;8520;50.102;20.010;2023-03-14T07:56:56;96376.63;;;16.85;47.37
16806;BME280;8520;50.102;20.010;2023-03-14T07:59:25;96383.38;;;16.74;47.28
16806;BME280;8520;50.102;20.010;2023-03-14T08:01:54;96391.91;;;17.01;47.08
16806;BME280;8520;50.102;20.010;2023-03-14T08:04:22;96397.72;;;16.96;47.00
16806;BME280;8520;50.102;20.010;2023-03-14T08:06:50;96400.91;;;16.59;47.40
16806;BME280;8520;50.102;20.010;2023-03-14T08:09:20;96401.00;;;17.02;46.76
16806;BME280;8520;50.102;20.010;2023-03-14T08:11:49;96409.81;;;16.58;47.50
16806;BME280;8520;50.102;20.010;2023-03-14T08:14:17;96397.06;;;16.80;47.08
16806;BME280;8520;50.102;20.010;2023-03-14T08:16:45;96400.13;;;16.67;46.94
16806;BME280;8520;50.102;20.010;2023-03-14T08:19:13;96405.97;;;16.86;46.99
16806;BME280;8520;50.102;20.010;2023-03-14T08:21:41;96409.31;;;16.84;47.29
16806;BME280;8520;50.102;20.010;2023-03-14T08:24:09;96410.94;;;16.55;47.76
16806;BME280;8520;50.102;20.010;2023-03-14T08:26:39;96406.13;;;16.88;47.02
16806;BME280;8520;50.102;20.010;2023-03-14T08:29:07;96397.09;;;16.47;47.50
16806;BME280;8520;50.102;20.010;2023-03-14T08:31:35;96399.50;;;17.01;46.92
16806;BME280;8520;50.102;20.010;2023-03-14T08:34:04;96414.03;;;16.67;47.28
16806;BME280;8520;50.102;20.010;2023-03-14T08:36:33;96424.53;;;17.08;46.50
16806;BME280;8520;50.102;20.010;2023-03-14T08:39:02;96405.47;;;16.72;46.87
16806;BME280;8520;50.102;20.010;2023-03-14T08:41:34;96410.34;;;16.97;46.40
16806;BME280;8520;50.102;20.010;2023-03-14T08:44:08;96391.88;;;17.26;46.03
16806;BME280;8520;50.102;20.010;2023-03-14T08:46:38;96400.84;;;17.42;45.44
16806;BME280;8520;50.102;20.010;2023-03-14T08:49:06;96395.56;;;17.71;44.83
16806;BME280;8520;50.102;20.010;2023-03-14T08:51:34;96395.72;;;17.13;45.89
16806;BME280;8520;50.102;20.010;2023-03-14T08:54:02;96392.63;;;17.86;44.92
16806;BME280;8520;50.102;20.010;2023-03-14T08:56:31;96394.47;;;18.01;44.89
16806;BME280;8520;50.102;20.010;2023-03-14T08:58:59;96399.50;;;17.85;44.70
16806;BME280;8520;50.102;20.010;2023-03-14T09:01:28;96393.28;;;17.77;44.74
16806;BME280;8520;50.102;20.010;2023-03-14T09:03:56;96398.34;;;17.71;44.68
16806;BME280;8520;50.102;20.010;2023-03-14T09:06:25;96401.22;;;17.98;44.66
16806;BME280;8520;50.102;20.010;2023-03-14T09:08:53;96424.88;;;17.55;45.47
16806;BME280;8520;50.102;20.010;2023-03-14T09:11:21;96432.38;;;17.27;45.67
16806;BME280;8520;50.102;20.010;2023-03-14T09:13:49;96432.50;;;17.54;45.43
16806;BME280;8520;50.102;20.010;2023-03-14T09:16:17;96436.66;;;17.70;44.80
16806;BME280;8520;50.102;20.010;2023-03-14T09:18:47;96447.81;;;17.03;45.95
16806;BME280;8520;50.102;20.010;2023-03-14T09:21:15;96446.72;;;16.26;47.26
16806;BME280;8520;50.102;20.010;2023-03-14T09:23:43;96439.47;;;16.71;46.85
16806;BME280;8520;50.102;20.010;2023-03-14T09:26:12;96417.91;;;16.39;46.66
16806;BME280;8520;50.102;20.010;2023-03-14T09:28:40;96429.84;;;15.68;48.06
16806;BME280;8520;50.102;20.010;2023-03-14T09:31:09;96430.63;;;16.09;47.84
16806;BME280;8520;50.102;20.010;2023-03-14T09:33:38;96434.47;;;15.73;47.97
16806;BME280;8520;50.102;20.010;2023-03-14T09:36:09;96440.41;;;15.70;47.90
16806;BME280;8520;50.102;20.010;2023-03-14T09:38:37;96449.34;;;16.24;47.28
16806;BME280;8520;50.102;20.010;2023-03-14T09:41:13;96437.06;;;15.71;48.70
16806;BME280;8520;50.102;20.010;2023-03-14T09:43:43;96429.56;;;16.45;47.27
16806;BME280;8520;50.102;20.010;2023-03-14T09:46:14;96436.56;;;16.13;47.46
16806;BME280;8520;50.102;20.010;2023-03-14T09:48:44;96449.03;;;16.45;47.11
16806;BME280;8520;50.102;20.010;2023-03-14T09:51:20;96450.03;;;16.72;46.75
16806;BME280;8520;50.102;20.010;2023-03-14T09:53:50;96443.56;;;16.70;46.91
16806;BME280;8520;50.102;20.010;2023-03-14T09:56:21;96436.38;;;16.59;46.79
16806;BME280;8520;50.102;20.010;2023-03-14T09:58:52;96446.75;;;16.58;47.05
16806;BME280;8520;50.102;20.010;2023-03-14T10:01:25;96438.03;;;17.62;45.52
16806;BME280;8520;50.102;20.010;2023-03-14T10:03:58;96460.59;;;16.41;47.32
16806;BME280;8520;50.102;20.010;2023-03-14T10:06:30;96443.66;;;17.54;46.09
16806;BME280;8520;50.102;20.010;2023-03-14T10:08:59;96449.78;;;17.10;45.98
16806;BME280;8520;50.102;20.010;2023-03-14T10:11:27;96454.38;;;16.90;46.41
16806;BME280;8520;50.102;20.010;2023-03-14T10:14:06;96465.66;;;17.25;45.92
16806;BME280;8520;50.102;20.010;2023-03-14T10:16:35;96469.97;;;17.43;45.79
16806;BME280;8520;50.102;20.010;2023-03-14T10:19:05;96473.69;;;16.96;46.40
16806;BME280;8520;50.102;20.010;2023-03-14T10:21:40;96482.00;;;17.04;46.70
16806;BME280;8520;50.102;20.010;2023-03-14T10:24:18;96456.75;;;17.02;46.47
16806;BME280;8520;50.102;20.010;2023-03-14T10:26:52;96494.50;;;16.95;46.36
16806;BME280;8520;50.102;20.010;2023-03-14T10:29:20;96476.41;;;17.04;46.86
16806;BME280;8520;50.102;20.010;2023-03-14T10:31:52;96478.25;;;17.34;46.60
16806;BME280;8520;50.102;20.010;2023-03-14T10:34:23;96478.75;;;16.42;48.07
16806;BME280;8520;50.102;20.010;2023-03-14T10:36:58;96483.72;;;16.03;49.08
16806;BME280;8520;50.102;20.010;2023-03-14T10:39:34;96475.59;;;16.46;48.23
16806;BME280;8520;50.102;20.010;2023-03-14T10:42:13;96486.22;;;16.40;48.77
16806;BME280;8520;50.102;20.010;2023-03-14T10:44:43;96476.53;;;15.93;49.48
16806;BME280;8520;50.102;20.010;2023-03-14T10:47:18;96477.16;;;16.72;48.09
16806;BME280;8520;50.102;20.010;2023-03-14T10:49:47;96476.72;;;15.80;49.55
16806;BME280;8520;50.102;20.010;2023-03-14T10:52:20;96494.34;;;15.74;49.94
16806;BME280;8520;50.102;20.010;2023-03-14T10:55:03;96490.06;;;15.43;51.07
16806;BME280;8520;50.102;20.010;2023-03-14T10:57:38;96481.56;;;15.56;50.83
16806;BME280;8520;50.102;20.010;2023-03-14T11:00:15;96489.31;;;15.35;51.37
16806;BME280;8520;50.102;20.010;2023-03-14T11:02:51;96490.44;;;15.39;51.10
16806;BME280;8520;50.102;20.010;2023-03-14T11:05:28;96480.63;;;15.84;50.20
16806;BME280;8520;50.102;20.010;2023-03-14T11:08:02;96480.06;;;15.70;50.40
16806;BME280;8520;50.102;20.010;2023-03-14T11:10:37;96479.06;;;16.06;49.73
16806;BME280;8520;50.102;20.010;2023-03-14T11:13:15;96464.44;;;15.90;50.44
16806;BME280;8520;50.102;20.010;2023-03-14T11:15:53;96472.28;;;16.40;49.92
16806;BME280;8520;50.102;20.010;2023-03-14T11:19:03;96469.84;;;15.81;50.72
16806;BME280;8520;50.102;20.010;2023-03-14T11:21:41;96463.22;;;16.31;50.37
16806;BME280;8520;50.102;20.010;2023-03-14T11:24:38;96451.91;;;16.70;49.13
16806;BME280;8520;50.102;20.010;2023-03-14T11:27:17;96453.63;;;16.10;50.43
16806;BME280;8520;50.102;20.010;2023-03-14T11:29:55;96445.06;;;16.96;49.51
16806;BME280;8520;50.102;20.010;2023-03-14T11:32:35;96440.19;;;17.29;48.38
16806;BME280;8520;50.102;20.010;2023-03-14T11:35:12;96446.09;;;15.87;51.04
16806;BME280;8520;50.102;20.010;2023-03-14T11:37:47;96448.59;;;16.23;50.33
16806;BME280;8520;50.102;20.010;2023-03-14T11:40:20;96449.16;;;16.62;49.87
16806;BME280;8520;50.102;20.010;2023-03-14T11:42:56;96438.16;;;16.72;49.39
16806;BME280;8520;50.102;20.010;2023-03-14T11:45:30;96451.25;;;16.06;50.88
16806;BME280;8520;50.102;20.010;2023-03-14T11:48:14;96445.53;;;15.96;51.04
16806;BME280;8520;50.102;20.010;2023-03-14T11:50:46;96444.84;;;15.65;51.85
16806;BME280;8520;50.102;20.010;2023-03-14T11:53:19;96446.09;;;15.95;51.70
16806;BME280;8520;50.102;20.010;2023-03-14T11:55:51;96441.41;;;16.13;51.31
16806;BME280;8520;50.102;20.010;2023-03-14T11:58:23;96458.00;;;15.27;52.70
16806;BME280;8520;50.102;20.010;2023-03-14T12:00:54;96454.50;;;15.18;53.23
16806;BME280;8520;50.102;20.010;2023-03-14T12:03:29;96432.81;;;16.26;51.42
16806;BME280;8520;50.102;20.010;2023-03-14T12:06:04;96449.69;;;16.68;50.26
16806;BME280;8520;50.102;20.010;2023-03-14T12:08:44;96438.84;;;16.47;50.71
16806;BME280;8520;50.102;20.010;2023-03-14T12:11:19;96431.31;;;16.98;49.82
16806;BME280;8520;50.102;20.010;2023-03-14T12:13:50;96433.00;;;16.60;50.58
16806;BME280;8520;50.102;20.010;2023-03-14T12:16:37;96439.63;;;16.73;50.69
16806;BME280;8520;50.102;20.010;2023-03-14T12:19:29;96443.91;;;16.33;51.24
16806;BME280;8520;50.102;20.010;2023-03-14T12:22:01;96428.44;;;16.48;50.82
16806;BME280;8520;50.102;20.010;2023-03-14T12:24:36;96428.28;;;16.78;50.65
16806;BME280;8520;50.102;20.010;2023-03-14T12:27:13;96429.56;;;16.45;50.95
16806;BME280;8520;50.102;20.010;2023-03-14T12:30:01;96419.13;;;17.10;50.04
16806;BME280;8520;50.102;20.010;2023-03-14T12:32:38;96421.69;;;16.91;50.52
16806;BME280;8520;50.102;20.010;2023-03-14T12:35:34;96415.03;;;16.54;50.89
16806;BME280;8520;50.102;20.010;2023-03-14T12:38:03;96409.16;;;16.42;50.60
16806;BME280;8520;50.102;20.010;2023-03-14T12:40:36;96411.28;;;15.63;52.69
16806;BME280;8520;50.102;20.010;2023-03-14T12:43:24;96400.84;;;15.94;51.92
16806;BME280;8520;50.102;20.010;2023-03-14T12:46:18;96385.66;;;16.60;50.85
16806;BME280;8520;50.102;20.010;2023-03-14T12:48:49;96382.63;;;16.74;50.13
16806;BME280;8520;50.102;20.010;2023-03-14T12:51:19;96389.69;;;16.42;50.82
16806;BME280;8520;50.102;20.010;2023-03-14T12:56:53;96396.44;;;16.89;49.85
16806;BME280;8520;50.102;20.010;2023-03-14T12:59:32;96383.78;;;16.63;49.92
16806;BME280;8520;50.102;20.010;2023-03-14T13:02:20;96389.38;;;16.30;50.78
16806;BME280;8520;50.102;20.010;2023-03-14T13:04:52;96386.91;;;16.75;49.89
16806;BME280;8520;50.102;20.010;2023-03-14T13:10:27;96399.88;;;15.99;51.35
16806;BME280;8520;50.102;20.010;2023-03-14T13:13:14;96410.53;;;15.78;52.15
16806;BME280;8520;50.102;20.010;2023-03-14T13:15:45;96405.91;;;15.73;52.38
16806;BME280;8520;50.102;20.010;2023-03-14T13:18:19;96402.75;;;16.24;51.67
16806;BME280;8520;50.102;20.010;2023-03-14T13:20:53;96413.06;;;15.91;52.23
16806;BME280;8520;50.102;20.010;2023-03-14T13:23:23;96423.34;;;15.66;52.78
16806;BME280;8520;50.102;20.010;2023-03-14T13:25:52;96414.63;;;15.77;52.53
16806;BME280;8520;50.102;20.010;2023-03-14T13:28:21;96426.81;;;15.82;52.65
16806;BME280;8520;50.102;20.010;2023-03-14T13:30:55;96429.53;;;16.12;52.33
16806;BME280;8520;50.102;20.010;2023-03-14T13:33:24;96439.50;;;15.14;54.40
16806;BME280;8520;50.102;20.010;2023-03-14T13:35:55;96435.97;;;15.36;54.15